createdAt,value
2023-02-15T00:03:07.871Z,19.05
2023-02-15T00:07:09.502Z,19.63
2023-02-15T00:11:13.900Z,17.05
2023-02-15T00:15:15.498Z,18.15
2023-02-15T00:19:21.762Z,19.20
2023-02-15T00:23:23.702Z,18.90
2023-02-15T00:27:25.392Z,18.27
2023-02-15T00:31:28.327Z,19.38
2023-02-15T00:35:31.380Z,19.80
2023-02-15T00:39:32.965Z,18.95
2023-02-15T00:43:35.822Z,19.98
2023-02-15T00:47:37.426Z,20.52
2023-02-15T00:51:39.177Z,19.38
2023-02-15T00:55:41.247Z,18.25
2023-02-15T00:59:42.820Z,19.88
2023-02-15T01:03:44.566Z,20.85
2023-02-15T01:07:46.101Z,19.58
2023-02-15T01:11:47.561Z,20.52
2023-02-15T01:15:56.123Z,18.08
2023-02-15T01:19:57.621Z,19.50
2023-02-15T01:23:59.997Z,18.63
2023-02-15T01:28:01.789Z,18.75
2023-02-15T01:32:03.670Z,19.20
2023-02-15T01:36:05.984Z,18.20
2023-02-15T01:40:13.064Z,18.50
2023-02-15T01:44:56.975Z,18.75
2023-02-15T01:49:26.006Z,19.08
2023-02-15T01:53:34.919Z,17.60
2023-02-15T01:57:36.808Z,18.67
2023-02-15T02:01:39.529Z,18.75
2023-02-15T02:05:42.197Z,19.60
2023-02-15T02:09:45.340Z,18.00
2023-02-15T02:13:47.698Z,17.60
2023-02-15T02:18:04.929Z,17.98
2023-02-15T02:22:21.633Z,18.15
2023-02-15T02:26:58.176Z,19.38
2023-02-15T02:31:44.240Z,15.43
2023-02-15T02:36:10.643Z,19.13
2023-02-15T02:40:21.791Z,16.58
2023-02-15T02:44:29.978Z,16.65
2023-02-15T02:48:34.288Z,16.02
2023-02-15T02:52:42.625Z,15.38
2023-02-15T02:56:48.640Z,14.85
2023-02-15T03:00:57.754Z,16.13
2023-02-15T03:09:19.348Z,14.23
2023-02-15T03:13:22.198Z,16.75
2023-02-15T03:17:28.120Z,14.98
2023-02-15T03:21:40.451Z,15.20
2023-02-15T03:25:46.880Z,14.65
2023-02-15T03:29:54.360Z,16.20
2023-02-15T03:34:02.908Z,15.60
2023-02-15T03:38:08.947Z,15.10
2023-02-15T03:42:19.542Z,15.95
2023-02-15T03:46:28.690Z,15.15
2023-02-15T03:50:53.630Z,14.90
2023-02-15T03:54:55.611Z,14.50
2023-02-15T03:59:15.748Z,14.07
2023-02-15T04:03:29.622Z,13.10
2023-02-15T04:07:31.102Z,14.07
2023-02-15T04:11:32.627Z,13.70
2023-02-15T04:15:52.598Z,14.43
2023-02-15T04:20:12.536Z,13.27
2023-02-15T04:24:33.210Z,13.60
2023-02-15T04:28:34.832Z,12.82
2023-02-15T04:32:37.121Z,14.10
2023-02-15T04:36:39.737Z,14.23
2023-02-15T04:40:41.285Z,13.35
2023-02-15T04:44:43.082Z,13.10
2023-02-15T04:48:44.783Z,14.00
2023-02-15T04:52:47.370Z,13.57
2023-02-15T04:56:48.831Z,12.95
2023-02-15T05:00:50.516Z,12.57
2023-02-15T05:04:52.190Z,11.90
2023-02-15T05:08:53.738Z,12.98
2023-02-15T05:12:55.549Z,12.98
2023-02-15T05:16:57.472Z,12.18
2023-02-15T05:20:59.127Z,12.30
2023-02-15T05:25:19.303Z,12.20
2023-02-15T05:29:20.929Z,12.25
2023-02-15T05:33:22.393Z,11.30
2023-02-15T05:37:23.896Z,12.70
2023-02-15T05:41:26.507Z,11.43
2023-02-15T05:45:28.161Z,11.73
2023-02-15T05:49:31.186Z,11.38
2023-02-15T05:53:38.181Z,12.98
2023-02-15T05:57:40.199Z,12.18
2023-02-15T06:01:41.835Z,12.27
2023-02-15T06:05:46.808Z,11.45
2023-02-15T06:09:49.003Z,11.00
2023-02-15T06:13:52.632Z,11.82
2023-02-15T06:17:54.285Z,11.40
2023-02-15T06:21:56.000Z,11.13
2023-02-15T06:25:58.260Z,12.23
2023-02-15T06:29:59.975Z,10.73
2023-02-15T06:34:02.318Z,11.90
2023-02-15T06:38:04.284Z,11.88
2023-02-15T06:42:05.865Z,10.45
2023-02-15T06:46:07.535Z,10.77
2023-02-15T06:50:10.472Z,11.45
2023-02-15T06:54:13.024Z,10.70
2023-02-15T06:58:14.583Z,10.00
2023-02-15T07:02:16.625Z,11.68
2023-02-15T07:06:18.153Z,9.43
2023-02-15T07:10:19.925Z,9.13
2023-02-15T07:14:21.511Z,8.52
2023-02-15T07:18:23.079Z,7.85
2023-02-15T07:22:24.631Z,8.93
2023-02-15T07:26:26.748Z,7.40
2023-02-15T07:30:28.966Z,8.13
2023-02-15T07:34:30.701Z,7.95
2023-02-15T07:38:34.666Z,8.02
2023-02-15T07:42:36.355Z,6.70
2023-02-15T07:46:38.096Z,7.43
2023-02-15T07:50:39.880Z,6.97
2023-02-15T07:54:41.347Z,7.13
2023-02-15T07:58:51.672Z,7.60
2023-02-15T08:03:14.562Z,7.30
2023-02-15T08:07:16.239Z,6.90
2023-02-15T08:11:26.264Z,6.57
2023-02-15T08:15:27.746Z,6.72
2023-02-15T08:19:33.644Z,6.45
2023-02-15T08:23:35.468Z,6.65
2023-02-15T08:27:37.016Z,6.90
2023-02-15T08:31:39.065Z,7.10
2023-02-15T08:35:40.647Z,7.25
2023-02-15T08:39:44.014Z,6.95
2023-02-15T08:43:47.523Z,5.88
2023-02-15T08:47:49.181Z,5.97
2023-02-15T08:51:50.776Z,6.85
2023-02-15T08:55:59.476Z,7.30
2023-02-15T09:00:01.173Z,7.78
2023-02-15T09:04:06.166Z,7.10
2023-02-15T09:08:09.116Z,6.47
2023-02-15T09:12:10.806Z,7.38
2023-02-15T09:16:12.437Z,7.28
2023-02-15T09:20:14.191Z,7.35
2023-02-15T09:24:17.345Z,7.60
2023-02-15T09:28:19.015Z,7.35
2023-02-15T09:32:20.619Z,7.68
2023-02-15T09:36:28.928Z,8.50
2023-02-15T09:40:40.364Z,7.97
2023-02-15T09:45:07.724Z,8.80
2023-02-15T09:49:51.209Z,9.18
2023-02-15T09:54:22.734Z,8.10
2023-02-15T09:58:53.809Z,9.02
2023-02-15T10:03:07.297Z,9.20
2023-02-15T10:07:46.012Z,9.70
2023-02-15T10:11:58.266Z,9.80
2023-02-15T10:16:36.891Z,10.77
2023-02-15T10:20:50.352Z,11.82
2023-02-15T10:25:13.377Z,11.15
2023-02-15T10:29:37.389Z,11.57
2023-02-15T10:33:44.355Z,10.85
2023-02-15T10:38:06.582Z,11.15
2023-02-15T10:42:14.313Z,11.00
2023-02-15T10:46:28.270Z,11.05
2023-02-15T10:50:53.622Z,11.05
2023-02-15T10:55:17.780Z,10.05
2023-02-15T10:59:36.922Z,10.63
2023-02-15T11:04:05.069Z,9.57
2023-02-15T11:08:09.337Z,10.60
2023-02-15T11:12:19.529Z,10.35
2023-02-15T11:16:39.683Z,10.18
2023-02-15T11:21:00.335Z,9.88
2023-02-15T11:25:12.020Z,9.07
2023-02-15T11:33:25.674Z,9.20
2023-02-15T11:37:36.860Z,10.02
2023-02-15T11:41:41.977Z,9.90
2023-02-15T11:49:47.354Z,9.60
2023-02-15T11:53:49.952Z,10.77
2023-02-15T11:57:57.555Z,10.15
2023-02-15T12:01:59.325Z,9.88
2023-02-15T12:06:06.545Z,10.02
2023-02-15T12:10:14.975Z,10.05
2023-02-15T12:14:16.839Z,10.00
2023-02-15T12:18:38.735Z,10.90
2023-02-15T12:22:54.104Z,10.98
2023-02-15T12:27:06.288Z,10.82
2023-02-15T12:31:32.423Z,10.20
2023-02-15T12:35:37.004Z,10.77
2023-02-15T12:39:52.416Z,10.93
2023-02-15T12:44:21.769Z,9.50
2023-02-15T12:48:23.475Z,9.98
2023-02-15T12:52:26.436Z,10.02
2023-02-15T12:56:28.668Z,10.10
2023-02-15T13:00:32.681Z,9.95
2023-02-15T13:04:34.624Z,8.82
2023-02-15T13:08:48.869Z,9.48
2023-02-15T13:12:54.839Z,10.13
2023-02-15T13:17:00.901Z,9.88
2023-02-15T13:21:12.197Z,10.68
2023-02-15T13:25:22.951Z,10.18
2023-02-15T13:29:30.217Z,10.23
2023-02-15T13:33:36.094Z,11.15
2023-02-15T13:38:08.007Z,10.73
2023-02-15T13:42:29.745Z,10.23
2023-02-15T13:46:42.114Z,10.57
2023-02-15T13:51:10.456Z,11.05
2023-02-15T13:55:28.524Z,10.05
2023-02-15T14:00:00.344Z,10.93
2023-02-15T14:04:27.169Z,10.40
2023-02-15T14:09:09.862Z,11.57
2023-02-15T14:13:45.618Z,11.27
2023-02-15T14:17:53.233Z,12.70
2023-02-15T14:22:03.085Z,13.68
2023-02-15T14:26:16.358Z,13.23
2023-02-15T14:30:35.691Z,11.90
2023-02-15T14:34:46.192Z,10.80
2023-02-15T14:39:07.271Z,12.20
2023-02-15T14:43:46.946Z,13.60
2023-02-15T14:48:10.387Z,13.40
2023-02-15T14:52:13.036Z,12.13
2023-02-15T14:56:20.243Z,13.27
2023-02-15T15:00:34.516Z,13.63
2023-02-15T15:04:44.112Z,14.25
2023-02-15T15:08:45.659Z,13.25
2023-02-15T15:13:39.130Z,14.00
2023-02-15T15:17:40.879Z,13.52
2023-02-15T15:21:51.200Z,13.75
2023-02-15T15:25:57.309Z,14.70
2023-02-15T15:29:59.192Z,14.20
2023-02-15T15:34:17.336Z,14.73
2023-02-15T15:39:01.325Z,13.70
2023-02-15T15:43:49.182Z,13.70
2023-02-15T15:48:16.244Z,14.35
2023-02-15T15:52:20.802Z,15.38
2023-02-15T15:56:28.766Z,13.40
2023-02-15T16:00:38.310Z,13.18
2023-02-15T16:04:39.942Z,12.52
2023-02-15T16:08:41.650Z,13.27
2023-02-15T16:12:43.552Z,13.60
2023-02-15T16:16:52.053Z,12.65
2023-02-15T16:20:57.474Z,12.95
2023-02-15T16:25:25.838Z,14.23
2023-02-15T16:29:30.959Z,14.00
2023-02-15T16:33:40.139Z,13.93
2023-02-15T16:37:41.857Z,13.57
2023-02-15T16:41:46.869Z,13.68
2023-02-15T16:45:48.728Z,13.70
2023-02-15T16:49:53.624Z,13.63
2023-02-15T16:53:56.612Z,13.68
2023-02-15T16:58:02.569Z,14.32
2023-02-15T17:02:37.177Z,15.10
2023-02-15T17:06:38.508Z,14.20
2023-02-15T17:10:42.648Z,15.55
2023-02-15T17:14:44.299Z,15.23
2023-02-15T17:18:46.922Z,15.07
2023-02-15T17:22:52.427Z,14.10
2023-02-15T17:27:01.393Z,14.05
2023-02-15T17:31:09.556Z,15.55
2023-02-15T17:35:21.485Z,14.93
2023-02-15T17:39:30.574Z,15.55
2023-02-15T17:43:34.340Z,15.40
2023-02-15T17:47:36.822Z,13.60
2023-02-15T17:51:38.304Z,15.75
2023-02-15T17:55:40.368Z,17.17
2023-02-15T18:00:01.196Z,15.75
2023-02-15T18:04:21.908Z,15.25
2023-02-15T18:08:47.220Z,14.68
2023-02-15T18:16:55.230Z,15.00
2023-02-15T18:20:57.060Z,15.63
2023-02-15T18:24:59.078Z,15.15
2023-02-15T18:29:00.560Z,14.00
2023-02-15T18:33:02.710Z,14.73
2023-02-15T18:37:06.851Z,13.80
2023-02-15T18:41:16.040Z,14.05
2023-02-15T18:45:21.054Z,15.88
2023-02-15T18:49:22.759Z,14.93
2023-02-15T18:53:25.294Z,14.45
2023-02-15T18:57:28.500Z,13.93
2023-02-15T19:01:30.429Z,15.70
2023-02-15T19:05:32.904Z,14.05
2023-02-15T19:09:34.604Z,15.57
2023-02-15T19:13:36.385Z,15.95
2023-02-15T19:17:38.188Z,14.98
2023-02-15T19:21:39.878Z,15.43
2023-02-15T19:25:41.765Z,16.35
2023-02-15T19:29:43.526Z,14.45
2023-02-15T19:33:45.304Z,17.20
2023-02-15T19:37:50.335Z,14.45
2023-02-15T19:41:52.044Z,15.55
2023-02-15T19:45:53.891Z,16.08
2023-02-15T19:50:01.115Z,15.95
2023-02-15T19:54:19.755Z,15.32
2023-02-15T19:58:21.873Z,15.75
2023-02-15T20:02:23.512Z,16.63
2023-02-15T20:06:25.065Z,16.92
2023-02-15T20:10:29.994Z,16.10
2023-02-15T20:14:31.698Z,15.57
2023-02-15T20:18:34.459Z,15.00
2023-02-15T20:22:36.725Z,14.50
2023-02-15T20:26:39.416Z,14.70
2023-02-15T20:30:42.208Z,16.00
2023-02-15T20:34:44.665Z,15.60
2023-02-15T20:38:47.556Z,16.00
2023-02-15T20:42:49.362Z,15.93
2023-02-15T20:46:56.495Z,15.70
2023-02-15T20:50:58.978Z,16.85
2023-02-15T20:55:00.561Z,16.00
2023-02-15T20:59:02.287Z,13.88
2023-02-15T21:03:12.460Z,15.48
2023-02-15T21:07:20.266Z,15.63
2023-02-15T21:11:23.200Z,15.30
2023-02-15T21:15:36.063Z,15.32
2023-02-15T21:19:40.786Z,15.27
2023-02-15T21:23:43.593Z,14.45
2023-02-15T21:27:45.931Z,14.07
2023-02-15T21:31:47.884Z,15.80
2023-02-15T21:35:52.701Z,13.57
2023-02-15T21:39:54.908Z,13.80
2023-02-15T21:44:14.954Z,14.75
2023-02-15T21:48:16.580Z,13.82
2023-02-15T21:52:22.757Z,14.73
2023-02-15T21:56:25.064Z,15.55
2023-02-15T22:00:29.528Z,14.27
2023-02-15T22:04:31.220Z,13.85
2023-02-15T22:08:33.430Z,13.05
2023-02-15T22:12:35.252Z,14.00
2023-02-15T22:16:36.936Z,14.98
2023-02-15T22:20:38.608Z,15.25
2023-02-15T22:24:40.460Z,13.50
2023-02-15T22:28:42.787Z,12.98
2023-02-15T22:32:44.435Z,13.65
2023-02-15T22:36:46.015Z,13.60
2023-02-15T22:40:50.248Z,14.57
2023-02-15T22:44:56.461Z,13.93
2023-02-15T22:48:57.962Z,13.77
2023-02-15T22:53:00.881Z,13.50
2023-02-15T22:57:02.412Z,13.52
2023-02-15T23:01:04.582Z,14.18
2023-02-15T23:05:15.870Z,13.02
2023-02-15T23:09:17.400Z,13.70
2023-02-15T23:13:25.913Z,12.32
2023-02-15T23:17:27.741Z,12.57
2023-02-15T23:21:33.385Z,13.20
2023-02-15T23:25:35.093Z,12.73
2023-02-15T23:29:36.743Z,13.10
2023-02-15T23:33:38.310Z,12.88
2023-02-15T23:37:39.793Z,12.77
2023-02-15T23:41:41.326Z,12.57
2023-02-15T23:45:42.899Z,12.65
2023-02-15T23:49:44.502Z,12.25
2023-02-15T23:53:46.213Z,13.10
2023-02-15T23:57:48.865Z,14.00
